createdAt,value
2023-03-15T14:00:50.615Z,25.00
2023-03-15T14:04:51.400Z,0.00
2023-03-15T14:08:50.855Z,0.00
2023-03-15T14:12:50.843Z,0.00
2023-03-15T14:17:04.299Z,0.00
2023-03-15T14:20:51.834Z,0.00
2023-03-15T14:24:50.824Z,0.00
2023-03-15T14:28:50.732Z,0.00
2023-03-15T14:32:51.118Z,0.00
2023-03-15T14:36:51.846Z,0.00
2023-03-15T14:40:51.202Z,0.00
2023-03-15T14:44:51.376Z,0.00
2023-03-15T14:48:51.405Z,0.00
2023-03-15T14:52:51.453Z,0.00
2023-03-15T14:56:51.628Z,0.00
2023-03-15T15:00:51.861Z,11.32
2023-03-15T15:04:51.974Z,25.00
2023-03-15T15:08:52.135Z,39.02
2023-03-15T15:13:04.783Z,62.03
2023-03-15T15:16:53.927Z,73.96
2023-03-15T15:20:52.101Z,42.25
2023-03-15T15:24:52.037Z,30.20
2023-03-15T15:28:52.302Z,66.07
2023-03-15T15:32:53.756Z,71.75
2023-03-15T15:36:52.783Z,40.59
2023-03-15T15:40:53.378Z,29.05
2023-03-15T15:44:52.900Z,25.93
2023-03-15T15:48:52.807Z,27.71
2023-03-15T15:52:52.907Z,25.64
2023-03-15T15:56:53.120Z,85.43
2023-03-15T16:00:53.276Z,41.97
2023-03-15T16:04:53.303Z,59.01
2023-03-15T16:08:54.373Z,61.43
2023-03-15T16:12:53.437Z,53.31
2023-03-15T16:16:53.570Z,33.08
2023-03-15T16:20:53.644Z,37.32
2023-03-15T16:24:53.684Z,29.98
2023-03-15T16:28:53.743Z,47.18
2023-03-15T16:32:53.945Z,53.57
2023-03-15T16:36:54.099Z,86.09
2023-03-15T16:40:54.159Z,70.42
2023-03-15T16:44:54.457Z,105.46
2023-03-15T16:48:55.453Z,68.12
2023-03-15T16:52:54.644Z,60.14
2023-03-15T16:56:54.764Z,42.66
2023-03-15T17:00:55.039Z,66.07
2023-03-15T17:04:55.210Z,24.19
2023-03-15T17:08:55.317Z,75.31
2023-03-15T17:12:55.497Z,48.58
2023-03-15T17:16:55.658Z,69.89
2023-03-15T17:20:55.813Z,44.96
2023-03-15T17:24:56.104Z,50.55
2023-03-15T17:28:56.233Z,39.45
2023-03-15T17:32:56.332Z,18.12
2023-03-15T17:36:56.430Z,64.93
2023-03-15T17:40:56.598Z,45.43
2023-03-15T17:44:56.747Z,46.70
2023-03-15T17:48:56.995Z,91.52
2023-03-15T17:52:56.992Z,51.32
2023-03-15T17:56:57.071Z,88.56
2023-03-15T18:00:57.243Z,36.13
2023-03-15T18:04:57.419Z,67.68
2023-03-15T18:08:57.511Z,45.90
2023-03-15T18:12:57.638Z,58.61
2023-03-15T18:16:57.789Z,40.55
2023-03-15T18:20:57.826Z,52.72
2023-03-15T18:24:57.942Z,63.50
2023-03-15T18:28:58.096Z,36.36
2023-03-15T18:32:58.325Z,47.77
2023-03-15T18:36:58.422Z,56.60
2023-03-15T18:40:58.496Z,42.27
2023-03-15T18:44:58.743Z,107.44
2023-03-15T18:48:58.767Z,26.43
2023-03-15T18:52:58.922Z,10.55
2023-03-15T18:56:59.073Z,57.37
2023-03-15T19:00:59.280Z,53.18
2023-03-15T19:04:59.362Z,40.57
2023-03-15T19:08:59.533Z,72.12
2023-03-15T19:12:59.626Z,88.96
2023-03-15T19:16:59.786Z,75.36
2023-03-15T19:20:59.877Z,98.49
2023-03-15T19:25:00.013Z,95.93
2023-03-15T19:29:00.113Z,92.45
2023-03-15T19:33:00.285Z,80.28
2023-03-15T19:37:01.405Z,74.52
2023-03-15T19:41:00.615Z,66.71
2023-03-15T19:45:00.728Z,57.00
2023-03-15T19:49:00.762Z,52.07
2023-03-15T19:53:00.838Z,26.42
2023-03-15T19:57:00.813Z,29.77
2023-03-15T20:01:01.894Z,28.09
2023-03-15T20:05:01.158Z,43.43
2023-03-15T20:09:01.230Z,39.46
2023-03-15T20:13:01.261Z,34.20
2023-03-15T20:17:01.427Z,29.52
2023-03-15T20:21:01.499Z,25.00
2023-03-15T20:25:01.694Z,25.14
2023-03-15T20:29:01.767Z,35.35
2023-03-15T20:33:01.997Z,62.55
2023-03-15T20:37:02.118Z,52.21
2023-03-15T20:41:02.190Z,54.75
2023-03-15T20:45:02.253Z,56.41
2023-03-15T20:49:02.406Z,25.85
2023-03-15T20:53:02.522Z,33.95
2023-03-15T20:57:02.656Z,42.02
2023-03-15T21:01:02.772Z,30.89
2023-03-15T21:05:02.788Z,28.07
2023-03-15T21:09:03.067Z,31.21
2023-03-15T21:13:03.173Z,27.66
2023-03-15T21:17:03.336Z,25.00
2023-03-15T21:21:03.589Z,45.14
2023-03-15T21:25:03.725Z,25.00
2023-03-15T21:29:03.897Z,40.11
2023-03-15T21:33:04.204Z,34.89
2023-03-15T21:37:04.250Z,25.00
2023-03-15T21:41:04.884Z,25.63
2023-03-15T21:45:04.728Z,35.89
2023-03-15T21:49:04.672Z,25.00
2023-03-15T21:53:04.859Z,33.98
2023-03-15T21:57:04.928Z,46.72
2023-03-15T22:01:05.145Z,34.48
2023-03-15T22:05:05.222Z,42.14
2023-03-15T22:09:05.420Z,29.48
2023-03-15T22:13:05.435Z,25.46
2023-03-15T22:17:05.498Z,36.57
2023-03-15T22:21:05.489Z,29.58
2023-03-15T22:25:05.412Z,28.28
2023-03-15T22:29:05.379Z,25.00
2023-03-15T22:33:05.313Z,38.43
2023-03-15T22:37:05.226Z,34.48
2023-03-15T22:41:05.193Z,40.78
2023-03-15T22:45:05.163Z,26.23
2023-03-15T22:49:05.141Z,41.65
2023-03-15T22:53:05.061Z,25.19
2023-03-15T22:57:05.013Z,37.67
2023-03-15T23:01:04.955Z,33.80
2023-03-15T23:05:04.987Z,53.44
2023-03-15T23:09:06.635Z,32.36
2023-03-15T23:13:05.218Z,27.80
2023-03-15T23:17:05.437Z,36.63
2023-03-15T23:21:05.608Z,41.20
2023-03-15T23:25:05.794Z,22.98
2023-03-15T23:29:05.840Z,29.15
2023-03-15T23:33:06.094Z,28.58
2023-03-15T23:37:06.096Z,32.93
2023-03-15T23:41:06.253Z,32.92
2023-03-15T23:45:06.406Z,25.00
2023-03-15T23:49:06.618Z,33.16
2023-03-15T23:53:06.706Z,25.94
2023-03-15T23:57:07.031Z,27.86
